sensor_id;sensor_type;location;lat;lon;timestamp;pressure;altitude;pressure_sealevel;temperature;humidity
3917;BME280;1973;50.518;7.318;2024-03-23T00:53:04;100147.69;;;11.04;100.00
3917;BME280;1973;50.518;7.318;2024-03-23T00:55:30;100147.19;;;10.95;100.00
3917;BME280;1973;50.518;7.318;2024-03-23T00:57:55;100150.47;;;10.74;100.00
3917;BME280;1973;50.518;7.318;2024-03-23T01:00:21;100146.06;;;10.55;100.00
3917;BME280;1973;50.518;7.318;2024-03-23T01:02:46;100144.53;;;10.41;100.00
3917;BME280;1973;50.518;7.318;2024-03-23T01:05:12;100141.19;;;10.20;100.00
3917;BME280;1973;50.518;7.318;2024-03-23T01:07:37;100152.22;;;10.14;100.00
3917;BME280;1973;50.518;7.318;2024-03-23T01:10:03;100154.28;;;10.00;100.00
3917;BME280;1973;50.518;7.318;2024-03-23T01:12:29;100152.13;;;10.02;100.00
3917;BME280;1973;50.518;7.318;2024-03-23T01:14:55;100166.63;;;9.91;100.00
3917;BME280;1973;50.518;7.318;2024-03-23T01:17:20;100177.03;;;9.89;100.00
3917;BME280;1973;50.518;7.318;2024-03-23T01:19:46;100173.06;;;9.85;100.00
3917;BME280;1973;50.518;7.318;2024-03-23T01:22:11;100170.75;;;9.82;100.00
3917;BME280;1973;50.518;7.318;2024-03-23T01:24:37;100166.31;;;9.81;100.00
3917;BME280;1973;50.518;7.318;2024-03-23T01:27:03;100173.78;;;9.74;100.00
3917;BME280;1973;50.518;7.318;2024-03-23T01:29:29;100170.41;;;9.72;100.00
3917;BME280;1973;50.518;7.318;2024-03-23T01:31:55;100178.06;;;9.70;100.00
3917;BME280;1973;50.518;7.318;2024-03-23T01:34:20;100170.28;;;9.67;100.00
3917;BME280;1973;50.518;7.318;2024-03-23T01:36:46;100179.56;;;9.66;100.00
3917;BME280;1973;50.518;7.318;2024-03-23T01:39:12;100180.22;;;9.68;100.00
3917;BME280;1973;50.518;7.318;2024-03-23T01:41:40;100168.81;;;9.64;100.00
3917;BME280;1973;50.518;7.318;2024-03-23T01:44:08;100164.13;;;9.65;100.00
3917;BME280;1973;50.518;7.318;2024-03-23T01:46:38;100157.19;;;9.62;100.00
3917;BME280;1973;50.518;7.318;2024-03-23T01:49:04;100154.25;;;9.64;100.00
3917;BME280;1973;50.518;7.318;2024-03-23T01:51:31;100154.25;;;9.64;100.00
3917;BME280;1973;50.518;7.318;2024-03-23T01:53:58;100148.09;;;9.62;100.00
3917;BME280;1973;50.518;7.318;2024-03-23T01:56:31;100141.56;;;9.63;100.00
3917;BME280;1973;50.518;7.318;2024-03-23T01:58:58;100145.81;;;9.59;100.00
3917;BME280;1973;50.518;7.318;2024-03-23T02:01:23;100152.16;;;9.59;100.00
3917;BME280;1973;50.518;7.318;2024-03-23T02:03:49;100161.84;;;9.62;100.00
3917;BME280;1973;50.518;7.318;2024-03-23T02:06:15;100144.59;;;9.55;100.00
3917;BME280;1973;50.518;7.318;2024-03-23T02:08:40;100131.09;;;9.53;100.00
3917;BME280;1973;50.518;7.318;2024-03-23T02:11:06;100134.25;;;9.50;100.00
3917;BME280;1973;50.518;7.318;2024-03-23T02:13:31;100131.81;;;9.42;100.00
3917;BME280;1973;50.518;7.318;2024-03-23T02:15:57;100138.19;;;9.36;100.00
3917;BME280;1973;50.518;7.318;2024-03-23T02:18:23;100146.03;;;9.33;100.00
3917;BME280;1973;50.518;7.318;2024-03-23T02:20:49;100143.09;;;9.27;100.00
3917;BME280;1973;50.518;7.318;2024-03-23T02:23:15;100148.19;;;9.31;100.00
3917;BME280;1973;50.518;7.318;2024-03-23T02:25:41;100139.50;;;9.34;100.00
3917;BME280;1973;50.518;7.318;2024-03-23T02:30:32;100145.44;;;9.31;100.00
3917;BME280;1973;50.518;7.318;2024-03-23T02:32:58;100148.00;;;9.25;100.00
3917;BME280;1973;50.518;7.318;2024-03-23T02:35:23;100123.94;;;9.21;100.00
3917;BME280;1973;50.518;7.318;2024-03-23T02:37:49;100133.69;;;9.17;100.00
3917;BME280;1973;50.518;7.318;2024-03-23T02:40:17;100147.03;;;9.13;100.00
3917;BME280;1973;50.518;7.318;2024-03-23T02:42:43;100138.19;;;9.11;100.00
3917;BME280;1973;50.518;7.318;2024-03-23T02:45:09;100143.69;;;9.11;100.00
3917;BME280;1973;50.518;7.318;2024-03-23T02:47:34;100134.59;;;9.11;100.00
3917;BME280;1973;50.518;7.318;2024-03-23T02:50:00;100134.38;;;9.12;100.00
3917;BME280;1973;50.518;7.318;2024-03-23T02:52:26;100137.78;;;9.08;100.00
3917;BME280;1973;50.518;7.318;2024-03-23T02:54:51;100139.88;;;9.12;100.00
3917;BME280;1973;50.518;7.318;2024-03-23T02:57:17;100131.19;;;9.15;100.00
3917;BME280;1973;50.518;7.318;2024-03-23T02:59:42;100138.97;;;9.18;100.00
3917;BME280;1973;50.518;7.318;2024-03-23T03:02:08;100141.06;;;9.23;100.00
3917;BME280;1973;50.518;7.318;2024-03-23T03:04:34;100107.84;;;9.24;100.00
3917;BME280;1973;50.518;7.318;2024-03-23T03:07:00;100111.44;;;9.25;100.00
3917;BME280;1973;50.518;7.318;2024-03-23T03:09:25;100123.78;;;9.16;100.00
3917;BME280;1973;50.518;7.318;2024-03-23T03:11:51;100130.78;;;9.12;100.00
3917;BME280;1973;50.518;7.318;2024-03-23T03:14:16;100141.19;;;9.03;100.00
3917;BME280;1973;50.518;7.318;2024-03-23T03:16:42;100130.66;;;9.00;100.00
3917;BME280;1973;50.518;7.318;2024-03-23T03:19:07;100151.84;;;8.93;100.00
3917;BME280;1973;50.518;7.318;2024-03-23T03:21:33;100158.19;;;8.87;100.00
3917;BME280;1973;50.518;7.318;2024-03-23T03:23:58;100150.66;;;8.76;100.00
3917;BME280;1973;50.518;7.318;2024-03-23T03:26:24;100143.50;;;8.75;100.00
3917;BME280;1973;50.518;7.318;2024-03-23T03:28:52;100157.66;;;8.72;100.00
3917;BME280;1973;50.518;7.318;2024-03-23T03:31:18;100171.78;;;8.69;100.00
3917;BME280;1973;50.518;7.318;2024-03-23T03:33:44;100170.53;;;8.65;100.00
3917;BME280;1973;50.518;7.318;2024-03-23T03:36:10;100167.41;;;8.61;100.00
3917;BME280;1973;50.518;7.318;2024-03-23T03:38:36;100174.63;;;8.56;100.00
3917;BME280;1973;50.518;7.318;2024-03-23T03:41:01;100157.97;;;8.51;100.00
3917;BME280;1973;50.518;7.318;2024-03-23T03:43:27;100164.09;;;8.46;100.00
3917;BME280;1973;50.518;7.318;2024-03-23T03:45:56;100175.75;;;8.42;100.00
3917;BME280;1973;50.518;7.318;2024-03-23T03:48:22;100183.56;;;8.25;100.00
3917;BME280;1973;50.518;7.318;2024-03-23T03:50:48;100188.66;;;8.15;100.00
3917;BME280;1973;50.518;7.318;2024-03-23T03:53:13;100193.53;;;8.00;100.00
3917;BME280;1973;50.518;7.318;2024-03-23T03:55:39;100197.78;;;7.89;100.00
3917;BME280;1973;50.518;7.318;2024-03-23T03:58:05;100197.81;;;7.76;100.00
3917;BME280;1973;50.518;7.318;2024-03-23T04:00:31;100204.97;;;7.64;100.00
3917;BME280;1973;50.518;7.318;2024-03-23T04:02:56;100198.22;;;7.60;100.00
3917;BME280;1973;50.518;7.318;2024-03-23T04:05:22;100203.72;;;7.53;100.00
3917;BME280;1973;50.518;7.318;2024-03-23T04:07:48;100204.53;;;7.47;100.00
3917;BME280;1973;50.518;7.318;2024-03-23T04:10:14;100216.31;;;7.41;100.00
3917;BME280;1973;50.518;7.318;2024-03-23T04:12:43;100203.25;;;7.37;100.00
3917;BME280;1973;50.518;7.318;2024-03-23T04:15:10;100235.50;;;7.34;100.00
3917;BME280;1973;50.518;7.318;2024-03-23T04:17:35;100248.97;;;7.36;100.00
3917;BME280;1973;50.518;7.318;2024-03-23T04:20:02;100255.72;;;7.40;100.00
3917;BME280;1973;50.518;7.318;2024-03-23T04:22:29;100261.59;;;7.44;100.00
3917;BME280;1973;50.518;7.318;2024-03-23T04:24:58;100263.31;;;7.45;100.00
3917;BME280;1973;50.518;7.318;2024-03-23T04:27:23;100252.34;;;7.45;100.00
3917;BME280;1973;50.518;7.318;2024-03-23T04:29:50;100249.63;;;7.38;100.00
3917;BME280;1973;50.518;7.318;2024-03-23T04:32:16;100252.53;;;7.37;100.00
3917;BME280;1973;50.518;7.318;2024-03-23T04:34:42;100248.53;;;7.32;100.00
3917;BME280;1973;50.518;7.318;2024-03-23T04:37:09;100245.16;;;7.24;100.00
3917;BME280;1973;50.518;7.318;2024-03-23T04:39:35;100262.84;;;7.21;100.00
3917;BME280;1973;50.518;7.318;2024-03-23T04:42:01;100266.00;;;7.18;100.00
3917;BME280;1973;50.518;7.318;2024-03-23T04:44:28;100244.94;;;7.12;100.00
3917;BME280;1973;50.518;7.318;2024-03-23T04:46:54;100256.72;;;7.13;100.00
3917;BME280;1973;50.518;7.318;2024-03-23T04:49:19;100263.84;;;7.07;100.00
3917;BME280;1973;50.518;7.318;2024-03-23T04:51:45;100275.22;;;7.04;100.00
3917;BME280;1973;50.518;7.318;2024-03-23T04:54:12;100272.25;;;6.99;100.00
3917;BME280;1973;50.518;7.318;2024-03-23T04:56:38;100267.19;;;6.96;100.00
3917;BME280;1973;50.518;7.318;2024-03-23T04:59:03;100260.66;;;6.91;100.00
3917;BME280;1973;50.518;7.318;2024-03-23T05:01:31;100267.34;;;6.88;100.00
3917;BME280;1973;50.518;7.318;2024-03-23T05:03:57;100274.28;;;6.84;100.00
3917;BME280;1973;50.518;7.318;2024-03-23T05:06:23;100275.97;;;6.85;100.00
3917;BME280;1973;50.518;7.318;2024-03-23T05:08:49;100276.63;;;6.87;100.00
3917;BME280;1973;50.518;7.318;2024-03-23T05:11:15;100262.53;;;6.90;100.00
3917;BME280;1973;50.518;7.318;2024-03-23T05:13:41;100266.31;;;6.89;100.00
3917;BME280;1973;50.518;7.318;2024-03-23T05:16:07;100260.44;;;6.92;100.00
3917;BME280;1973;50.518;7.318;2024-03-23T05:18:34;100266.56;;;6.94;100.00
3917;BME280;1973;50.518;7.318;2024-03-23T05:21:00;100265.50;;;6.95;100.00
3917;BME280;1973;50.518;7.318;2024-03-23T05:23:26;100270.97;;;6.95;100.00
3917;BME280;1973;50.518;7.318;2024-03-23T05:25:52;100268.03;;;6.97;100.00
3917;BME280;1973;50.518;7.318;2024-03-23T05:28:18;100264.88;;;6.93;100.00
3917;BME280;1973;50.518;7.318;2024-03-23T05:30:43;100272.22;;;6.93;100.00
3917;BME280;1973;50.518;7.318;2024-03-23T05:33:09;100277.69;;;6.86;100.00
3917;BME280;1973;50.518;7.318;2024-03-23T05:35:35;100285.88;;;6.86;100.00
3917;BME280;1973;50.518;7.318;2024-03-23T05:38:00;100281.88;;;6.89;100.00
3917;BME280;1973;50.518;7.318;2024-03-23T05:40:26;100291.56;;;6.91;100.00
3917;BME280;1973;50.518;7.318;2024-03-23T05:42:52;100285.06;;;6.92;100.00
3917;BME280;1973;50.518;7.318;2024-03-23T05:45:19;100285.72;;;6.94;100.00
3917;BME280;1973;50.518;7.318;2024-03-23T05:47:44;100289.91;;;6.97;100.00
3917;BME280;1973;50.518;7.318;2024-03-23T05:50:10;100307.19;;;6.97;100.00
3917;BME280;1973;50.518;7.318;2024-03-23T05:52:38;100303.41;;;6.98;100.00
3917;BME280;1973;50.518;7.318;2024-03-23T05:55:05;100307.41;;;7.02;100.00
3917;BME280;1973;50.518;7.318;2024-03-23T05:57:31;100309.75;;;7.05;100.00
3917;BME280;1973;50.518;7.318;2024-03-23T05:59:56;100312.69;;;7.10;100.00
3917;BME280;1973;50.518;7.318;2024-03-23T06:02:22;100330.41;;;7.14;100.00
3917;BME280;1973;50.518;7.318;2024-03-23T06:04:48;100330.84;;;7.18;100.00
3917;BME280;1973;50.518;7.318;2024-03-23T06:07:13;100322.22;;;7.21;100.00
3917;BME280;1973;50.518;7.318;2024-03-23T06:09:41;100316.34;;;7.24;100.00
3917;BME280;1973;50.518;7.318;2024-03-23T06:12:07;100317.41;;;7.29;100.00
3917;BME280;1973;50.518;7.318;2024-03-23T06:14:32;100319.94;;;7.31;100.00
3917;BME280;1973;50.518;7.318;2024-03-23T06:16:59;100320.97;;;7.30;100.00
3917;BME280;1973;50.518;7.318;2024-03-23T06:19:25;100325.19;;;7.32;100.00
3917;BME280;1973;50.518;7.318;2024-03-23T06:21:53;100322.88;;;7.29;100.00
3917;BME280;1973;50.518;7.318;2024-03-23T06:24:21;100328.78;;;7.33;100.00
3917;BME280;1973;50.518;7.318;2024-03-23T06:26:47;100325.84;;;7.34;100.00
3917;BME280;1973;50.518;7.318;2024-03-23T06:29:13;100318.25;;;7.37;100.00
3917;BME280;1973;50.518;7.318;2024-03-23T06:31:38;100319.53;;;7.41;100.00
3917;BME280;1973;50.518;7.318;2024-03-23T06:34:04;100324.59;;;7.44;100.00
3917;BME280;1973;50.518;7.318;2024-03-23T06:36:30;100333.47;;;7.46;100.00
3917;BME280;1973;50.518;7.318;2024-03-23T06:38:56;100335.78;;;7.49;100.00
3917;BME280;1973;50.518;7.318;2024-03-23T06:41:22;100332.00;;;7.50;100.00
3917;BME280;1973;50.518;7.318;2024-03-23T06:43:48;100348.63;;;7.55;100.00
3917;BME280;1973;50.518;7.318;2024-03-23T06:46:13;100347.41;;;7.57;100.00
3917;BME280;1973;50.518;7.318;2024-03-23T06:48:39;100354.97;;;7.62;100.00
3917;BME280;1973;50.518;7.318;2024-03-23T06:51:04;100359.63;;;7.68;100.00
3917;BME280;1973;50.518;7.318;2024-03-23T06:53:30;100357.94;;;7.73;100.00
3917;BME280;1973;50.518;7.318;2024-03-23T06:55:55;100361.75;;;7.79;100.00
3917;BME280;1973;50.518;7.318;2024-03-23T06:58:23;100354.59;;;7.84;100.00
3917;BME280;1973;50.518;7.318;2024-03-23T07:00:48;100357.13;;;7.86;100.00
3917;BME280;1973;50.518;7.318;2024-03-23T07:03:15;100360.31;;;7.90;100.00
3917;BME280;1973;50.518;7.318;2024-03-23T07:05:40;100368.53;;;7.96;100.00
3917;BME280;1973;50.518;7.318;2024-03-23T07:08:07;100358.84;;;8.00;100.00
3917;BME280;1973;50.518;7.318;2024-03-23T07:10:32;100354.63;;;8.04;100.00
3917;BME280;1973;50.518;7.318;2024-03-23T07:12:58;100355.88;;;8.08;100.00
3917;BME280;1973;50.518;7.318;2024-03-23T07:15:24;100350.84;;;8.12;100.00
3917;BME280;1973;50.518;7.318;2024-03-23T07:17:50;100354.84;;;8.16;100.00
3917;BME280;1973;50.518;7.318;2024-03-23T07:20:15;100350.81;;;8.18;100.00
3917;BME280;1973;50.518;7.318;2024-03-23T07:22:41;100358.19;;;8.24;100.00
3917;BME280;1973;50.518;7.318;2024-03-23T07:25:07;100354.84;;;8.29;100.00
3917;BME280;1973;50.518;7.318;2024-03-23T07:27:33;100355.06;;;8.34;100.00
3917;BME280;1973;50.518;7.318;2024-03-23T07:29:59;100352.53;;;8.39;100.00
3917;BME280;1973;50.518;7.318;2024-03-23T07:32:26;100352.94;;;8.43;100.00
3917;BME280;1973;50.518;7.318;2024-03-23T07:34:52;100349.38;;;8.49;100.00
3917;BME280;1973;50.518;7.318;2024-03-23T07:37:18;100358.84;;;8.53;100.00
3917;BME280;1973;50.518;7.318;2024-03-23T07:39:44;100349.53;;;8.54;100.00
3917;BME280;1973;50.518;7.318;2024-03-23T07:42:09;100353.56;;;8.58;100.00
3917;BME280;1973;50.518;7.318;2024-03-23T07:44:35;100353.78;;;8.56;100.00
3917;BME280;1973;50.518;7.318;2024-03-23T07:47:00;100368.75;;;8.60;100.00
3917;BME280;1973;50.518;7.318;2024-03-23T07:49:26;100369.19;;;8.64;100.00
3917;BME280;1973;50.518;7.318;2024-03-23T07:51:52;100371.91;;;8.64;100.00
3917;BME280;1973;50.518;7.318;2024-03-23T07:54:17;100366.00;;;8.67;100.00
3917;BME280;1973;50.518;7.318;2024-03-23T07:56:43;100383.31;;;8.67;100.00
3917;BME280;1973;50.518;7.318;2024-03-23T07:59:09;100379.69;;;8.73;100.00
3917;BME280;1973;50.518;7.318;2024-03-23T08:01:34;100384.13;;;8.81;100.00
3917;BME280;1973;50.518;7.318;2024-03-23T08:04:00;100385.38;;;8.85;100.00
3917;BME280;1973;50.518;7.318;2024-03-23T08:06:26;100391.50;;;8.94;100.00
3917;BME280;1973;50.518;7.318;2024-03-23T08:08:54;100378.78;;;8.99;100.00
3917;BME280;1973;50.518;7.318;2024-03-23T08:11:29;100384.94;;;9.01;100.00
3917;BME280;1973;50.518;7.318;2024-03-23T08:13:55;100388.94;;;9.05;100.00
3917;BME280;1973;50.518;7.318;2024-03-23T08:16:21;100383.81;;;9.15;100.00
3917;BME280;1973;50.518;7.318;2024-03-23T08:18:47;100392.44;;;9.25;100.00
3917;BME280;1973;50.518;7.318;2024-03-23T08:21:13;100383.16;;;9.26;100.00
3917;BME280;1973;50.518;7.318;2024-03-23T08:23:39;100397.69;;;9.34;100.00
3917;BME280;1973;50.518;7.318;2024-03-23T08:26:06;100380.34;;;9.40;100.00
3917;BME280;1973;50.518;7.318;2024-03-23T08:28:32;100377.53;;;9.46;100.00
3917;BME280;1973;50.518;7.318;2024-03-23T08:31:03;100385.78;;;9.53;100.00
3917;BME280;1973;50.518;7.318;2024-03-23T08:33:31;100374.50;;;9.61;100.00
3917;BME280;1973;50.518;7.318;2024-03-23T08:35:57;100388.03;;;9.62;100.00
3917;BME280;1973;50.518;7.318;2024-03-23T08:38:24;100383.75;;;9.73;100.00
3917;BME280;1973;50.518;7.318;2024-03-23T08:41:01;100412.50;;;9.77;100.00
3917;BME280;1973;50.518;7.318;2024-03-23T08:43:28;100385.13;;;9.89;100.00
3917;BME280;1973;50.518;7.318;2024-03-23T08:46:03;100393.69;;;10.05;100.00
3917;BME280;1973;50.518;7.318;2024-03-23T08:48:30;100399.59;;;10.15;100.00
3917;BME280;1973;50.518;7.318;2024-03-23T08:51:06;100405.09;;;10.15;100.00
3917;BME280;1973;50.518;7.318;2024-03-23T08:53:32;100400.72;;;10.01;100.00
3917;BME280;1973;50.518;7.318;2024-03-23T08:55:59;100399.72;;;9.89;100.00
3917;BME280;1973;50.518;7.318;2024-03-23T08:58:27;100403.78;;;9.80;100.00
3917;BME280;1973;50.518;7.318;2024-03-23T09:00:54;100403.88;;;9.67;100.00
3917;BME280;1973;50.518;7.318;2024-03-23T09:03:25;100401.00;;;9.49;100.00
3917;BME280;1973;50.518;7.318;2024-03-23T09:05:52;100407.53;;;9.54;100.00
3917;BME280;1973;50.518;7.318;2024-03-23T09:08:18;100394.38;;;9.63;100.00
3917;BME280;1973;50.518;7.318;2024-03-23T09:10:44;100390.59;;;9.64;100.00
3917;BME280;1973;50.518;7.318;2024-03-23T09:13:10;100385.88;;;9.71;100.00
3917;BME280;1973;50.518;7.318;2024-03-23T09:15:37;100383.28;;;9.83;100.00
3917;BME280;1973;50.518;7.318;2024-03-23T09:18:03;100388.91;;;9.94;100.00
3917;BME280;1973;50.518;7.318;2024-03-23T09:20:32;100375.97;;;10.01;100.00
3917;BME280;1973;50.518;7.318;2024-03-23T09:22:58;100390.72;;;10.07;100.00
3917;BME280;1973;50.518;7.318;2024-03-23T09:25:24;100380.97;;;10.11;100.00
3917;BME280;1973;50.518;7.318;2024-03-23T09:27:50;100374.16;;;10.20;100.00
3917;BME280;1973;50.518;7.318;2024-03-23T09:30:16;100375.75;;;10.34;100.00
3917;BME280;1973;50.518;7.318;2024-03-23T09:32:43;100359.50;;;10.51;100.00
3917;BME280;1973;50.518;7.318;2024-03-23T09:35:09;100371.91;;;10.60;100.00
3917;BME280;1973;50.518;7.318;2024-03-23T09:37:35;100359.38;;;10.64;100.00
3917;BME280;1973;50.518;7.318;2024-03-23T09:40:01;100366.25;;;10.73;100.00
3917;BME280;1973;50.518;7.318;2024-03-23T09:42:28;100366.56;;;10.83;100.00
3917;BME280;1973;50.518;7.318;2024-03-23T09:44:57;100341.66;;;10.96;100.00
3917;BME280;1973;50.518;7.318;2024-03-23T09:47:24;100338.97;;;11.08;100.00
3917;BME280;1973;50.518;7.318;2024-03-23T09:49:50;100338.44;;;11.17;100.00
3917;BME280;1973;50.518;7.318;2024-03-23T09:52:15;100343.00;;;11.23;100.00
3917;BME280;1973;50.518;7.318;2024-03-23T09:54:42;100344.09;;;11.22;97.98
3917;BME280;1973;50.518;7.318;2024-03-23T09:57:08;100350.75;;;11.15;95.32
3917;BME280;1973;50.518;7.318;2024-03-23T09:59:33;100333.59;;;11.13;92.08
3917;BME280;1973;50.518;7.318;2024-03-23T10:02:01;100371.03;;;11.20;84.16
3917;BME280;1973;50.518;7.318;2024-03-23T10:04:40;100328.69;;;11.33;75.53
3917;BME280;1973;50.518;7.318;2024-03-23T10:07:25;100343.16;;;11.29;72.70
3917;BME280;1973;50.518;7.318;2024-03-23T10:09:51;100332.38;;;11.57;82.79
3917;BME280;1973;50.518;7.318;2024-03-23T10:12:18;100323.72;;;11.71;78.62
3917;BME280;1973;50.518;7.318;2024-03-23T10:14:44;100324.75;;;11.89;79.49
3917;BME280;1973;50.518;7.318;2024-03-23T10:17:18;100318.94;;;12.32;71.35
3917;BME280;1973;50.518;7.318;2024-03-23T10:19:48;100324.00;;;12.58;73.23
3917;BME280;1973;50.518;7.318;2024-03-23T10:22:19;100322.06;;;12.70;71.51
3917;BME280;1973;50.518;7.318;2024-03-23T10:24:44;100341.53;;;12.63;69.78
3917;BME280;1973;50.518;7.318;2024-03-23T10:27:15;100332.41;;;12.51;62.00
3917;BME280;1973;50.518;7.318;2024-03-23T10:29:43;100324.47;;;12.32;66.89
3917;BME280;1973;50.518;7.318;2024-03-23T10:32:13;100338.97;;;12.15;67.77
3917;BME280;1973;50.518;7.318;2024-03-23T10:34:39;100312.31;;;12.09;68.44
3917;BME280;1973;50.518;7.318;2024-03-23T10:37:06;100332.56;;;12.03;69.33
3917;BME280;1973;50.518;7.318;2024-03-23T10:39:39;100356.94;;;12.06;63.91
3917;BME280;1973;50.518;7.318;2024-03-23T10:42:06;100370.66;;;11.83;67.37
3917;BME280;1973;50.518;7.318;2024-03-23T10:44:40;100387.34;;;11.88;66.97
3917;BME280;1973;50.518;7.318;2024-03-23T10:47:05;100379.06;;;11.88;64.20
3917;BME280;1973;50.518;7.318;2024-03-23T10:49:32;100400.88;;;11.78;63.21
3917;BME280;1973;50.518;7.318;2024-03-23T10:52:00;100437.63;;;11.72;65.27
3917;BME280;1973;50.518;7.318;2024-03-23T10:54:26;100438.72;;;10.92;85.27
3917;BME280;1973;50.518;7.318;2024-03-23T10:56:57;100470.50;;;10.45;100.00
3917;BME280;1973;50.518;7.318;2024-03-23T10:59:25;100469.78;;;9.80;100.00
3917;BME280;1973;50.518;7.318;2024-03-23T11:01:54;100471.44;;;9.30;100.00
3917;BME280;1973;50.518;7.318;2024-03-23T11:04:38;100498.75;;;8.92;100.00
3917;BME280;1973;50.518;7.318;2024-03-23T11:07:36;100479.97;;;8.63;100.00
3917;BME280;1973;50.518;7.318;2024-03-23T11:10:26;100492.00;;;8.68;100.00
3917;BME280;1973;50.518;7.318;2024-03-23T11:12:53;100482.72;;;8.69;100.00
3917;BME280;1973;50.518;7.318;2024-03-23T11:15:18;100462.41;;;9.03;100.00
3917;BME280;1973;50.518;7.318;2024-03-23T11:18:05;100441.66;;;9.34;100.00
3917;BME280;1973;50.518;7.318;2024-03-23T11:20:34;100431.00;;;9.50;100.00
3917;BME280;1973;50.518;7.318;2024-03-23T11:23:00;100432.09;;;9.49;100.00
3917;BME280;1973;50.518;7.318;2024-03-23T11:25:27;100446.00;;;9.54;100.00
3917;BME280;1973;50.518;7.318;2024-03-23T11:27:54;100437.72;;;9.61;100.00
3917;BME280;1973;50.518;7.318;2024-03-23T11:30:26;100435.44;;;9.51;100.00
3917;BME280;1973;50.518;7.318;2024-03-23T11:32:57;100425.75;;;9.49;100.00
3917;BME280;1973;50.518;7.318;2024-03-23T11:35:34;100434.84;;;9.43;100.00
3917;BME280;1973;50.518;7.318;2024-03-23T11:40:28;100462.81;;;9.13;100.00
3917;BME280;1973;50.518;7.318;2024-03-23T11:43:08;100418.53;;;8.84;100.00
3917;BME280;1973;50.518;7.318;2024-03-23T11:45:43;100441.97;;;8.79;100.00
3917;BME280;1973;50.518;7.318;2024-03-23T11:50:40;100431.63;;;8.68;100.00
3917;BME280;1973;50.518;7.318;2024-03-23T11:53:19;100424.03;;;8.90;100.00
3917;BME280;1973;50.518;7.318;2024-03-23T11:55:47;100422.22;;;9.28;100.00
3917;BME280;1973;50.518;7.318;2024-03-23T11:58:14;100420.13;;;9.75;100.00
3917;BME280;1973;50.518;7.318;2024-03-23T12:00:40;100413.09;;;10.17;100.00
3917;BME280;1973;50.518;7.318;2024-03-23T12:03:06;100403.56;;;10.69;100.00
3917;BME280;1973;50.518;7.318;2024-03-23T12:05:32;100389.94;;;11.35;100.00
3917;BME280;1973;50.518;7.318;2024-03-23T12:08:21;100401.97;;;11.89;96.21
3917;BME280;1973;50.518;7.318;2024-03-23T12:10:49;100387.47;;;12.23;91.27
3917;BME280;1973;50.518;7.318;2024-03-23T12:13:18;100391.66;;;12.26;85.52
3917;BME280;1973;50.518;7.318;2024-03-23T12:15:44;100386.38;;;12.36;86.31
3917;BME280;1973;50.518;7.318;2024-03-23T12:18:10;100373.25;;;12.19;85.05
3917;BME280;1973;50.518;7.318;2024-03-23T12:20:37;100371.34;;;12.20;82.80
3917;BME280;1973;50.518;7.318;2024-03-23T12:23:12;100356.75;;;12.43;73.35
3917;BME280;1973;50.518;7.318;2024-03-23T12:25:39;100362.31;;;12.78;77.21
3917;BME280;1973;50.518;7.318;2024-03-23T12:28:06;100351.34;;;12.94;74.60
3917;BME280;1973;50.518;7.318;2024-03-23T12:30:36;100333.31;;;13.03;72.32
3917;BME280;1973;50.518;7.318;2024-03-23T12:33:03;100332.59;;;13.08;72.75
3917;BME280;1973;50.518;7.318;2024-03-23T12:35:29;100329.38;;;12.88;72.86
3917;BME280;1973;50.518;7.318;2024-03-23T12:37:55;100338.28;;;12.66;73.88
3917;BME280;1973;50.518;7.318;2024-03-23T12:40:20;100336.94;;;12.46;74.63
3917;BME280;1973;50.518;7.318;2024-03-23T12:42:46;100343.78;;;12.32;74.40
3917;BME280;1973;50.518;7.318;2024-03-23T12:45:11;100343.03;;;12.13;73.45
3917;BME280;1973;50.518;7.318;2024-03-23T12:47:37;100345.00;;;11.94;73.71
3917;BME280;1973;50.518;7.318;2024-03-23T12:50:04;100341.47;;;11.76;72.04
3917;BME280;1973;50.518;7.318;2024-03-23T12:52:31;100349.81;;;11.69;72.44
3917;BME280;1973;50.518;7.318;2024-03-23T12:54:57;100338.91;;;11.62;72.56
3917;BME280;1973;50.518;7.318;2024-03-23T12:57:25;100333.16;;;11.64;69.07
3917;BME280;1973;50.518;7.318;2024-03-23T12:59:52;100333.16;;;11.64;72.79
3917;BME280;1973;50.518;7.318;2024-03-23T13:02:21;100336.88;;;11.99;73.98
3917;BME280;1973;50.518;7.318;2024-03-23T13:04:50;100321.84;;;12.60;71.70
3917;BME280;1973;50.518;7.318;2024-03-23T13:07:16;100310.81;;;13.23;71.74
3917;BME280;1973;50.518;7.318;2024-03-23T13:09:42;100309.69;;;13.64;64.92
3917;BME280;1973;50.518;7.318;2024-03-23T13:12:08;100313.06;;;13.66;60.72
3917;BME280;1973;50.518;7.318;2024-03-23T13:14:33;100305.75;;;13.32;59.46
3917;BME280;1973;50.518;7.318;2024-03-23T13:16:59;100297.19;;;12.82;61.98
3917;BME280;1973;50.518;7.318;2024-03-23T13:19:24;100308.41;;;12.52;62.33
3917;BME280;1973;50.518;7.318;2024-03-23T13:21:58;100314.47;;;12.31;65.06
3917;BME280;1973;50.518;7.318;2024-03-23T13:24:26;100299.75;;;12.60;63.60
3917;BME280;1973;50.518;7.318;2024-03-23T13:26:52;100304.53;;;12.53;64.07
3917;BME280;1973;50.518;7.318;2024-03-23T13:29:19;100300.69;;;12.54;65.49
3917;BME280;1973;50.518;7.318;2024-03-23T13:31:49;100284.38;;;12.41;63.91
3917;BME280;1973;50.518;7.318;2024-03-23T13:34:15;100279.44;;;12.31;65.56
3917;BME280;1973;50.518;7.318;2024-03-23T13:36:41;100282.09;;;12.26;66.65
3917;BME280;1973;50.518;7.318;2024-03-23T13:39:08;100277.44;;;12.27;67.04
3917;BME280;1973;50.518;7.318;2024-03-23T13:41:40;100276.47;;;12.33;67.29
3917;BME280;1973;50.518;7.318;2024-03-23T13:44:07;100270.59;;;12.52;64.20
3917;BME280;1973;50.518;7.318;2024-03-23T13:46:33;100269.16;;;12.90;62.54
3917;BME280;1973;50.518;7.318;2024-03-23T13:48:59;100262.59;;;13.31;60.25
3917;BME280;1973;50.518;7.318;2024-03-23T13:51:25;100249.50;;;13.71;59.79
3917;BME280;1973;50.518;7.318;2024-03-23T13:53:56;100260.38;;;13.89;54.44
3917;BME280;1973;50.518;7.318;2024-03-23T13:56:22;100249.44;;;14.16;55.30
3917;BME280;1973;50.518;7.318;2024-03-23T13:58:48;100237.09;;;14.57;54.19
3917;BME280;1973;50.518;7.318;2024-03-23T14:01:15;100225.13;;;14.51;54.37
3917;BME280;1973;50.518;7.318;2024-03-23T14:03:44;100230.53;;;14.63;55.78
3917;BME280;1973;50.518;7.318;2024-03-23T14:06:10;100231.81;;;14.55;56.50
3917;BME280;1973;50.518;7.318;2024-03-23T14:08:37;100236.53;;;14.38;56.91